createdAt,value
2023-04-04T00:02:17.133Z,103095.98
2023-04-04T00:04:47.132Z,103098.06
2023-04-04T00:07:16.938Z,103094.61
2023-04-04T00:09:47.077Z,103096.22
2023-04-04T00:12:17.564Z,103095.89
2023-04-04T00:14:47.690Z,103089.98
2023-04-04T00:17:17.292Z,103094.55
2023-04-04T00:19:47.148Z,103098.89
2023-04-04T00:22:19.073Z,103093.90
2023-04-04T00:24:48.981Z,103093.90
2023-04-04T00:27:18.754Z,103095.71
2023-04-04T00:29:48.560Z,103092.69
2023-04-04T00:32:18.352Z,103090.42
2023-04-04T00:34:49.627Z,103089.27
2023-04-04T00:37:19.408Z,103085.30
2023-04-04T00:39:49.801Z,103083.68
2023-04-04T00:42:19.724Z,103090.20
2023-04-04T00:44:49.798Z,103082.86
2023-04-04T00:47:25.546Z,103083.24
2023-04-04T00:49:55.620Z,103083.27
2023-04-04T00:52:25.507Z,103075.88
2023-04-04T00:54:57.708Z,103072.55
2023-04-04T00:57:29.940Z,103077.43
2023-04-04T01:00:02.769Z,103073.06
2023-04-04T01:02:32.768Z,103062.66
2023-04-04T01:05:04.586Z,103066.70
2023-04-04T01:07:37.118Z,103063.86
2023-04-04T01:10:10.899Z,103062.41
2023-04-04T01:12:42.701Z,103065.94
2023-04-04T01:15:12.927Z,103062.77
2023-04-04T01:17:44.576Z,103062.77
2023-04-04T01:20:16.562Z,103067.88
2023-04-04T01:22:50.461Z,103063.45
2023-04-04T01:25:23.756Z,103067.88
2023-04-04T01:27:56.324Z,103066.63
2023-04-04T01:30:29.564Z,103055.50
2023-04-04T01:33:05.554Z,103058.86
2023-04-04T01:35:50.922Z,103057.37
2023-04-04T01:38:41.666Z,103051.59
2023-04-04T01:41:13.401Z,103051.59
2023-04-04T01:43:48.056Z,103054.14
2023-04-04T01:46:20.605Z,103058.33
2023-04-04T01:48:51.811Z,103058.94
2023-04-04T01:51:24.066Z,103058.66
2023-04-04T01:53:54.916Z,103056.63
2023-04-04T01:56:25.378Z,103058.18
2023-04-04T01:58:55.228Z,103063.30
2023-04-04T02:01:25.126Z,103059.43
2023-04-04T02:03:55.031Z,103060.34
2023-04-04T02:06:24.564Z,103047.83
2023-04-04T02:08:56.102Z,103057.26
2023-04-04T02:11:26.084Z,103062.65
2023-04-04T02:13:55.936Z,103060.88
2023-04-04T02:16:27.448Z,103065.52
2023-04-04T02:18:57.400Z,103069.45
2023-04-04T02:21:27.281Z,103066.69
2023-04-04T02:23:57.057Z,103062.99
2023-04-04T02:26:26.533Z,103064.34
2023-04-04T02:28:56.729Z,103064.75
2023-04-04T02:31:27.200Z,103064.86
2023-04-04T02:33:57.675Z,103064.86
2023-04-04T02:36:27.666Z,103067.93
2023-04-04T02:38:58.330Z,103070.92
2023-04-04T02:41:28.974Z,103070.92
2023-04-04T02:43:59.759Z,103070.83
2023-04-04T02:46:29.644Z,103069.95
2023-04-04T02:49:02.008Z,103065.13
2023-04-04T02:51:33.450Z,103068.03
2023-04-04T02:54:05.297Z,103065.14
2023-04-04T02:56:38.659Z,103064.45
2023-04-04T02:59:08.628Z,103065.62
2023-04-04T03:01:38.574Z,103060.53
2023-04-04T03:04:10.359Z,103061.30
2023-04-04T03:06:42.165Z,103059.19
2023-04-04T03:09:12.279Z,103056.77
2023-04-04T03:11:42.859Z,103049.75
2023-04-04T03:14:12.715Z,103049.75
2023-04-04T03:16:42.678Z,103052.73
2023-04-04T03:19:12.686Z,103044.75
2023-04-04T03:21:42.453Z,103044.07
2023-04-04T03:24:12.566Z,103046.09
2023-04-04T03:26:43.040Z,103031.77
2023-04-04T03:29:13.738Z,103035.32
2023-04-04T03:31:44.033Z,103036.10
2023-04-04T03:34:13.700Z,103038.48
2023-04-04T03:36:46.603Z,103038.66
2023-04-04T03:39:17.052Z,103034.50
2023-04-04T03:41:46.668Z,103039.52
2023-04-04T03:44:16.618Z,103043.92
2023-04-04T03:46:46.615Z,103042.03
2023-04-04T03:49:16.870Z,103047.80
2023-04-04T03:51:46.714Z,103045.27
2023-04-04T03:54:17.512Z,103040.67
2023-04-04T03:56:47.990Z,103041.83
2023-04-04T03:59:18.140Z,103032.38
2023-04-04T04:01:48.867Z,103025.89
2023-04-04T04:04:18.810Z,103029.38
2023-04-04T04:06:49.027Z,103021.09
2023-04-04T04:09:19.068Z,103026.76
2023-04-04T04:11:48.876Z,103029.45
2023-04-04T04:14:18.626Z,103035.33
2023-04-04T04:16:48.497Z,103032.06
2023-04-04T04:19:20.464Z,103033.00
2023-04-04T04:21:50.506Z,103033.00
2023-04-04T04:24:20.024Z,103031.14
2023-04-04T04:26:49.825Z,103030.73
2023-04-04T04:29:19.679Z,103030.73
2023-04-04T04:31:49.617Z,103035.44
2023-04-04T04:34:20.118Z,103029.61
2023-04-04T04:36:50.594Z,103039.52
2023-04-04T04:39:34.157Z,103042.83
2023-04-04T04:42:12.061Z,103039.14
2023-04-04T04:44:43.550Z,103046.78
2023-04-04T04:47:13.753Z,103046.78
2023-04-04T04:49:45.453Z,103048.55
2023-04-04T04:52:15.427Z,103050.36
2023-04-04T04:54:45.850Z,103051.38
2023-04-04T04:57:15.988Z,103045.47
2023-04-04T04:59:46.813Z,103045.00
2023-04-04T05:02:17.577Z,103039.63
2023-04-04T05:04:48.543Z,103035.16
2023-04-04T05:07:18.594Z,103038.62
2023-04-04T05:09:48.919Z,103036.31
2023-04-04T05:12:19.577Z,103042.55
2023-04-04T05:14:50.235Z,103039.94
2023-04-04T05:17:21.888Z,103042.63
2023-04-04T05:19:52.355Z,103046.95
2023-04-04T05:22:22.920Z,103055.50
2023-04-04T05:24:54.101Z,103052.42
2023-04-04T05:27:26.140Z,103049.45
2023-04-04T05:29:57.651Z,103056.95
2023-04-04T05:32:29.195Z,103059.06
2023-04-04T05:35:01.177Z,103064.19
2023-04-04T05:37:33.682Z,103071.25
2023-04-04T05:40:07.259Z,103065.09
2023-04-04T05:42:37.361Z,103068.66
2023-04-04T05:45:08.718Z,103064.82
2023-04-04T05:47:38.570Z,103066.44
2023-04-04T05:50:09.988Z,103058.00
2023-04-04T05:52:40.472Z,103056.95
2023-04-04T05:55:12.065Z,103065.16
2023-04-04T05:57:51.684Z,103066.63
2023-04-04T06:00:23.169Z,103069.36
2023-04-04T06:02:56.241Z,103069.36
2023-04-04T06:05:27.142Z,103068.97
2023-04-04T06:07:57.033Z,103084.02
2023-04-04T06:10:26.674Z,103074.67
2023-04-04T06:12:57.945Z,103070.98
2023-04-04T06:15:27.928Z,103072.24
2023-04-04T06:17:58.814Z,103074.47
2023-04-04T06:20:30.304Z,103072.81
2023-04-04T06:23:01.746Z,103072.45
2023-04-04T06:25:32.511Z,103075.53
2023-04-04T06:28:03.888Z,103080.43
2023-04-04T06:30:38.034Z,103080.43
2023-04-04T06:33:08.963Z,103076.81
2023-04-04T06:35:40.554Z,103071.19
2023-04-04T06:38:11.625Z,103054.17
2023-04-04T06:40:41.885Z,103074.88
2023-04-04T06:43:12.054Z,103080.54
2023-04-04T06:45:43.702Z,103072.48
2023-04-04T06:48:13.624Z,103072.48
2023-04-04T06:50:43.620Z,103075.58
2023-04-04T06:53:15.198Z,103074.23
2023-04-04T06:55:46.208Z,103075.99
2023-04-04T06:58:16.005Z,103081.25
2023-04-04T07:00:46.683Z,103075.64
2023-04-04T07:03:17.668Z,103078.34
2023-04-04T07:05:47.553Z,103079.34
2023-04-04T07:08:17.189Z,103082.55
2023-04-04T07:10:47.295Z,103074.48
2023-04-04T07:13:17.401Z,103074.48
2023-04-04T07:15:50.818Z,103077.09
2023-04-04T07:18:20.606Z,103076.31
2023-04-04T07:20:50.414Z,103077.32
2023-04-04T07:23:20.182Z,103069.41
2023-04-04T07:25:49.965Z,103075.73
2023-04-04T07:28:19.540Z,103071.88
2023-04-04T07:30:49.532Z,103084.22
2023-04-04T07:33:19.257Z,103081.02
2023-04-04T07:35:49.078Z,103083.98
2023-04-04T07:38:18.937Z,103074.20
2023-04-04T07:40:51.645Z,103070.92
2023-04-04T07:43:21.418Z,103073.61
2023-04-04T07:45:51.885Z,103076.36
2023-04-04T07:48:22.971Z,103061.92
2023-04-04T07:50:53.207Z,103065.18
2023-04-04T07:53:23.434Z,103063.50
2023-04-04T07:55:53.296Z,103066.64
2023-04-04T07:58:23.061Z,103069.86
2023-04-04T08:00:53.241Z,103069.33
2023-04-04T08:03:24.235Z,103059.25
2023-04-04T08:05:54.217Z,103063.95
2023-04-04T08:08:24.092Z,103058.81
2023-04-04T08:10:53.896Z,103067.13
2023-04-04T08:13:23.699Z,103063.84
2023-04-04T08:15:53.515Z,103066.98
2023-04-04T08:18:23.660Z,103066.69
2023-04-04T08:20:53.135Z,103064.61
2023-04-04T08:23:22.979Z,103041.05
2023-04-04T08:25:53.930Z,103038.32
2023-04-04T08:28:23.744Z,103051.23
2023-04-04T08:30:56.157Z,103050.58
2023-04-04T08:33:37.323Z,103052.95
2023-04-04T08:35:58.268Z,103047.24
2023-04-04T08:38:28.133Z,103049.30
2023-04-04T08:40:58.552Z,103046.92
2023-04-04T08:43:29.062Z,103049.50
2023-04-04T08:45:59.203Z,103047.84
2023-04-04T08:48:31.264Z,103047.58
2023-04-04T08:51:01.372Z,103053.41
2023-04-04T08:53:32.203Z,103053.41
2023-04-04T08:56:02.166Z,103051.50
2023-04-04T08:58:32.005Z,103051.50
2023-04-04T09:01:01.982Z,103051.95
2023-04-04T09:03:34.984Z,103044.72
2023-04-04T09:06:07.216Z,103046.19
2023-04-04T09:08:37.156Z,103046.34
2023-04-04T09:11:07.635Z,103042.53
2023-04-04T09:13:40.898Z,103042.44
2023-04-04T09:16:11.010Z,103043.49
2023-04-04T09:18:41.017Z,103034.73
2023-04-04T09:21:12.329Z,103039.31
2023-04-04T09:23:44.722Z,103045.62
2023-04-04T09:26:16.160Z,103045.45
2023-04-04T09:28:49.001Z,103040.28
2023-04-04T09:31:18.851Z,103042.84
2023-04-04T09:33:50.585Z,103037.63
2023-04-04T09:36:20.966Z,103040.52
2023-04-04T09:38:54.238Z,103032.33
2023-04-04T09:41:26.198Z,103031.20
2023-04-04T09:43:58.528Z,103040.37
2023-04-04T09:46:28.184Z,103031.81
2023-04-04T09:48:58.411Z,103036.23
2023-04-04T09:51:40.867Z,103031.39
2023-04-04T09:54:18.734Z,103030.60
2023-04-04T09:56:45.055Z,103028.73
2023-04-04T09:59:16.201Z,103024.14
2023-04-04T10:01:47.676Z,103036.07
2023-04-04T10:04:17.475Z,103018.83
2023-04-04T10:06:47.593Z,103019.36
2023-04-04T10:09:17.581Z,103024.53
2023-04-04T10:11:48.500Z,103023.78
2023-04-04T10:14:18.080Z,103027.38
2023-04-04T10:16:47.951Z,103009.13
2023-04-04T10:19:19.583Z,103009.13
2023-04-04T10:21:49.796Z,103011.95
2023-04-04T10:24:19.678Z,103023.13
2023-04-04T10:26:49.476Z,103012.23
2023-04-04T10:29:19.453Z,103014.91
2023-04-04T10:31:51.672Z,103016.18
2023-04-04T10:34:30.330Z,103009.82
2023-04-04T10:37:12.295Z,103006.55
2023-04-04T10:39:58.488Z,103001.63
2023-04-04T10:42:31.317Z,103007.88
2023-04-04T10:45:16.954Z,103009.13
2023-04-04T10:47:36.038Z,103003.97
2023-04-04T10:50:09.153Z,102999.36
2023-04-04T10:52:44.273Z,102996.34
2023-04-04T10:55:15.910Z,102996.73
2023-04-04T10:57:49.962Z,102986.75
2023-04-04T11:00:22.537Z,102984.19
2023-04-04T11:03:00.408Z,102989.92
2023-04-04T11:05:40.237Z,102980.19
2023-04-04T11:08:14.253Z,102981.14
2023-04-04T11:10:46.409Z,102977.00
2023-04-04T11:13:22.008Z,102974.47
2023-04-04T11:15:59.941Z,102970.95
2023-04-04T11:18:45.505Z,102969.27
2023-04-04T11:21:27.292Z,102966.53
2023-04-04T11:24:08.979Z,102966.53
2023-04-04T11:26:39.638Z,102960.31
2023-04-04T11:29:09.675Z,102952.47
2023-04-04T11:31:42.552Z,102952.47
2023-04-04T11:34:15.347Z,102954.84
2023-04-04T11:36:48.268Z,102951.97
2023-04-04T11:39:23.358Z,102939.31
2023-04-04T11:42:09.076Z,102938.84
2023-04-04T11:45:04.791Z,102951.13
2023-04-04T11:47:35.010Z,102939.50
2023-04-04T11:50:10.899Z,102934.87
2023-04-04T11:52:43.423Z,102934.87
2023-04-04T11:55:18.888Z,102938.09
2023-04-04T11:57:54.221Z,102937.24
2023-04-04T12:00:32.680Z,102936.73
2023-04-04T12:03:02.678Z,102936.73
2023-04-04T12:05:32.949Z,102934.67
2023-04-04T12:08:04.369Z,102923.65
2023-04-04T12:10:38.988Z,102915.80
2023-04-04T12:13:09.933Z,102915.60
2023-04-04T12:15:40.009Z,102919.72
2023-04-04T12:18:10.279Z,102916.00
2023-04-04T12:20:42.026Z,102912.89
2023-04-04T12:23:11.827Z,102905.84
2023-04-04T12:25:43.818Z,102904.23
2023-04-04T12:28:14.542Z,102901.39
2023-04-04T12:30:45.990Z,102898.09
2023-04-04T12:33:16.290Z,102896.05
2023-04-04T12:35:49.628Z,102887.02
2023-04-04T12:38:20.225Z,102884.03
2023-04-04T12:40:52.175Z,102884.69
2023-04-04T12:43:22.016Z,102873.83
2023-04-04T12:45:52.150Z,102865.98
2023-04-04T12:48:25.325Z,102862.59
2023-04-04T12:50:57.706Z,102849.33
2023-04-04T12:53:30.269Z,102849.33
2023-04-04T12:56:06.627Z,102863.58
2023-04-04T12:58:37.744Z,102856.86
2023-04-04T13:01:08.274Z,102859.23
2023-04-04T13:03:39.297Z,102860.31
2023-04-04T13:06:19.770Z,102854.07
2023-04-04T13:08:54.826Z,102854.97
2023-04-04T13:11:25.550Z,102843.90
2023-04-04T13:14:03.396Z,102833.37
2023-04-04T13:16:37.375Z,102835.61
2023-04-04T13:19:08.326Z,102834.75
2023-04-04T13:21:39.644Z,102826.78
2023-04-04T13:24:11.149Z,102826.41
2023-04-04T13:26:41.439Z,102822.87
2023-04-04T13:29:11.807Z,102812.98
2023-04-04T13:31:41.702Z,102811.91
2023-04-04T13:34:11.491Z,102806.95
2023-04-04T13:36:41.382Z,102796.65
2023-04-04T13:39:11.552Z,102799.11
2023-04-04T13:41:41.358Z,102790.19
2023-04-04T13:44:16.575Z,102794.27
2023-04-04T13:46:46.710Z,102799.50
2023-04-04T13:49:16.536Z,102790.34
2023-04-04T13:51:46.426Z,102785.26
2023-04-04T13:54:17.679Z,102782.78
2023-04-04T13:56:47.483Z,102782.28
2023-04-04T13:59:17.553Z,102780.62
2023-04-04T14:01:47.640Z,102771.08
2023-04-04T14:04:23.747Z,102772.44
2023-04-04T14:06:49.422Z,102767.76
2023-04-04T14:09:19.639Z,102756.13
2023-04-04T14:11:49.479Z,102764.95
2023-04-04T14:14:19.292Z,102763.61
2023-04-04T14:16:49.165Z,102763.77
2023-04-04T14:19:18.982Z,102759.44
2023-04-04T14:21:49.990Z,102734.27
2023-04-04T14:24:19.823Z,102749.72
2023-04-04T14:26:49.671Z,102738.09
2023-04-04T14:29:19.484Z,102736.77
2023-04-04T14:31:49.397Z,102734.41
2023-04-04T14:34:19.241Z,102728.47
2023-04-04T14:36:49.665Z,102728.91
2023-04-04T14:39:19.629Z,102717.58
2023-04-04T14:41:49.607Z,102717.58
2023-04-04T14:44:21.183Z,102715.85
2023-04-04T14:46:53.065Z,102714.30
2023-04-04T14:49:23.452Z,102713.11
2023-04-04T14:51:53.227Z,102707.94
2023-04-04T14:54:22.739Z,102715.01
2023-04-04T14:56:52.772Z,102709.06
2023-04-04T14:59:22.701Z,102697.45
2023-04-04T15:01:52.534Z,102703.42
2023-04-04T15:04:22.368Z,102709.47
2023-04-04T15:06:52.167Z,102702.11
2023-04-04T15:09:23.136Z,102695.11
2023-04-04T15:11:52.943Z,102695.11
2023-04-04T15:14:23.640Z,102696.59
2023-04-04T15:16:54.196Z,102691.06
2023-04-04T15:19:24.352Z,102689.34
2023-04-04T15:21:55.788Z,102689.64
2023-04-04T15:24:25.891Z,102686.05
2023-04-04T15:26:57.803Z,102686.05
2023-04-04T15:29:28.299Z,102689.82
2023-04-04T15:31:58.159Z,102686.53
2023-04-04T15:34:27.717Z,102678.52
2023-04-04T15:36:59.677Z,102685.26
2023-04-04T15:39:30.500Z,102679.02
2023-04-04T15:42:01.215Z,102673.54
2023-04-04T15:44:31.700Z,102680.77
2023-04-04T15:47:01.568Z,102679.19
2023-04-04T15:49:33.765Z,102676.75
2023-04-04T15:52:04.749Z,102673.94
2023-04-04T15:54:34.604Z,102665.06
2023-04-04T15:57:04.476Z,102661.34
2023-04-04T15:59:34.375Z,102653.90
2023-04-04T16:02:06.490Z,102653.90
2023-04-04T16:04:37.247Z,102657.42
2023-04-04T16:07:07.342Z,102651.75
2023-04-04T16:09:37.116Z,102649.22
2023-04-04T16:12:07.059Z,102647.02
2023-04-04T16:14:36.848Z,102652.98
2023-04-04T16:17:06.665Z,102620.56
2023-04-04T16:19:36.462Z,102620.56
2023-04-04T16:22:06.393Z,102639.98
2023-04-04T16:24:36.327Z,102634.48
2023-04-04T16:27:06.301Z,102627.23
2023-04-04T16:29:36.210Z,102636.77
2023-04-04T16:32:07.822Z,102622.67
2023-04-04T16:34:38.868Z,102626.00
2023-04-04T16:37:10.353Z,102633.08
2023-04-04T16:39:40.905Z,102628.92
2023-04-04T16:42:10.411Z,102625.03
2023-04-04T16:44:40.519Z,102621.02
2023-04-04T16:47:11.035Z,102617.38
2023-04-04T16:49:42.773Z,102618.23
2023-04-04T16:52:14.769Z,102625.32
2023-04-04T16:54:44.649Z,102619.22
2023-04-04T16:57:14.772Z,102617.47
2023-04-04T16:59:44.576Z,102620.41
2023-04-04T17:02:16.381Z,102621.81
2023-04-04T17:04:46.354Z,102619.77
2023-04-04T17:07:16.239Z,102614.70
2023-04-04T17:09:47.342Z,102612.77
2023-04-04T17:12:17.699Z,102615.19
2023-04-04T17:14:47.259Z,102611.30
2023-04-04T17:17:17.344Z,102614.89
2023-04-04T17:19:47.192Z,102612.19
2023-04-04T17:22:17.089Z,102607.03
2023-04-04T17:24:46.869Z,102605.00
2023-04-04T17:27:16.814Z,102612.33
2023-04-04T17:29:46.605Z,102609.09
2023-04-04T17:32:18.477Z,102606.13
2023-04-04T17:34:48.563Z,102604.66
2023-04-04T17:37:18.644Z,102604.66
2023-04-04T17:39:49.101Z,102603.73
2023-04-04T17:42:18.622Z,102608.07
2023-04-04T17:44:48.898Z,102604.14
2023-04-04T17:47:19.369Z,102608.92
2023-04-04T17:49:50.791Z,102603.37
2023-04-04T17:52:20.703Z,102603.83
2023-04-04T17:54:52.458Z,102602.13
2023-04-04T17:57:22.531Z,102608.95
2023-04-04T17:59:52.823Z,102608.07
2023-04-04T18:02:22.642Z,102606.67
2023-04-04T18:04:52.558Z,102603.78
2023-04-04T18:07:22.377Z,102610.34
2023-04-04T18:09:52.192Z,102603.73
2023-04-04T18:12:22.346Z,102589.98
2023-04-04T18:14:52.194Z,102589.98
2023-04-04T18:17:21.975Z,102599.25
2023-04-04T18:19:53.578Z,102603.34
2023-04-04T18:22:23.087Z,102609.41
2023-04-04T18:24:53.160Z,102602.59
2023-04-04T18:27:22.950Z,102607.09
2023-04-04T18:29:52.837Z,102601.34
2023-04-04T18:32:24.085Z,102601.30
2023-04-04T18:34:53.968Z,102605.33
2023-04-04T18:37:23.841Z,102609.72
2023-04-04T18:39:53.743Z,102612.12
2023-04-04T18:42:25.097Z,102619.09
2023-04-04T18:44:55.000Z,102620.20
2023-04-04T18:47:24.827Z,102618.17
2023-04-04T18:49:54.765Z,102621.27
2023-04-04T18:52:24.584Z,102615.18
2023-04-04T18:54:54.687Z,102618.17
2023-04-04T18:57:24.654Z,102631.38
2023-04-04T18:59:54.468Z,102630.75
2023-04-04T19:02:24.272Z,102627.47
2023-04-04T19:04:59.145Z,102635.11
2023-04-04T19:07:31.003Z,102632.54
2023-04-04T19:10:04.567Z,102633.10
2023-04-04T19:12:35.422Z,102632.70
2023-04-04T19:15:06.999Z,102636.63
2023-04-04T19:17:36.835Z,102634.58
2023-04-04T19:20:08.427Z,102634.58
2023-04-04T19:22:38.597Z,102641.29
2023-04-04T19:25:08.909Z,102640.23
2023-04-04T19:27:39.084Z,102635.66
2023-04-04T19:30:14.806Z,102640.66
2023-04-04T19:32:44.633Z,102641.50
2023-04-04T19:35:23.537Z,102648.72
2023-04-04T19:37:53.674Z,102647.34
2023-04-04T19:40:26.464Z,102640.72
2023-04-04T19:42:56.555Z,102640.72
2023-04-04T19:45:29.124Z,102649.16
2023-04-04T19:47:59.326Z,102640.93
2023-04-04T19:50:38.058Z,102649.63
2023-04-04T19:53:08.147Z,102650.76
2023-04-04T19:55:40.492Z,102651.44
2023-04-04T19:58:13.900Z,102646.90
2023-04-04T20:00:43.723Z,102647.37
2023-04-04T20:03:37.015Z,102650.02
2023-04-04T20:06:12.322Z,102650.30
2023-04-04T20:08:46.492Z,102647.07
2023-04-04T20:11:18.944Z,102651.92
2023-04-04T20:13:50.774Z,102650.34
2023-04-04T20:16:22.028Z,102644.17
2023-04-04T20:18:52.940Z,102645.56
2023-04-04T20:21:24.806Z,102649.84
2023-04-04T20:23:57.755Z,102646.39
2023-04-04T20:26:54.266Z,102644.98
2023-04-04T20:29:32.838Z,102638.30
2023-04-04T20:32:08.273Z,102628.23
2023-04-04T20:34:44.567Z,102622.94
2023-04-04T20:37:22.686Z,102627.31
2023-04-04T20:39:58.549Z,102630.33
2023-04-04T20:42:37.788Z,102627.52
2023-04-04T20:45:11.153Z,102625.94
2023-04-04T20:47:46.804Z,102628.96
2023-04-04T20:50:27.185Z,102627.20
2023-04-04T20:53:03.023Z,102630.88
2023-04-04T20:55:34.876Z,102629.95
2023-04-04T20:58:28.556Z,102626.20
2023-04-04T21:01:00.148Z,102624.60
2023-04-04T21:03:36.031Z,102630.41
2023-04-04T21:06:13.914Z,102623.26
2023-04-04T21:08:51.285Z,102633.63
2023-04-04T21:11:32.814Z,102634.69
2023-04-04T21:14:03.173Z,102635.18
2023-04-04T21:16:32.998Z,102636.33
2023-04-04T21:19:03.270Z,102625.77
2023-04-04T21:21:33.154Z,102625.77
2023-04-04T21:24:04.663Z,102628.25
2023-04-04T21:26:38.985Z,102624.56
2023-04-04T21:29:20.500Z,102623.46
2023-04-04T21:31:52.937Z,102623.44
2023-04-04T21:34:25.467Z,102621.53
2023-04-04T21:36:57.323Z,102621.50
2023-04-04T21:39:31.492Z,102622.09
2023-04-04T21:42:05.934Z,102625.49
2023-04-04T21:44:34.954Z,102624.73
2023-04-04T21:47:04.590Z,102624.59
2023-04-04T21:49:34.458Z,102624.92
2023-04-04T21:52:04.269Z,102612.86
2023-04-04T21:54:34.099Z,102610.69
2023-04-04T21:57:03.875Z,102614.76
2023-04-04T21:59:33.742Z,102610.66
2023-04-04T22:02:03.622Z,102607.52
2023-04-04T22:04:33.588Z,102621.79
2023-04-04T22:07:03.379Z,102613.39
2023-04-04T22:09:33.175Z,102612.64
2023-04-04T22:12:03.270Z,102609.77
2023-04-04T22:14:33.474Z,102614.67
2023-04-04T22:17:03.232Z,102610.88
2023-04-04T22:19:34.685Z,102610.77
2023-04-04T22:22:05.338Z,102607.39
2023-04-04T22:24:35.126Z,102606.00
2023-04-04T22:27:05.116Z,102601.09
2023-04-04T22:29:34.898Z,102600.19
2023-04-04T22:32:04.831Z,102602.38
2023-04-04T22:34:34.839Z,102595.18
2023-04-04T22:37:05.421Z,102595.06
2023-04-04T22:39:35.216Z,102587.31
2023-04-04T22:42:05.326Z,102591.44
2023-04-04T22:44:35.134Z,102581.42
2023-04-04T22:47:06.184Z,102582.33
2023-04-04T22:49:40.715Z,102579.75
2023-04-04T22:52:14.740Z,102583.81
2023-04-04T22:54:45.368Z,102581.69
2023-04-04T22:57:15.619Z,102581.50
2023-04-04T22:59:45.208Z,102580.41
2023-04-04T23:02:17.500Z,102571.48
2023-04-04T23:04:47.366Z,102578.13
2023-04-04T23:07:17.145Z,102579.59
2023-04-04T23:09:46.943Z,102580.96
2023-04-04T23:12:17.949Z,102578.90
2023-04-04T23:14:47.753Z,102583.81
2023-04-04T23:17:17.550Z,102571.54
2023-04-04T23:19:47.346Z,102571.54
2023-04-04T23:22:18.756Z,102579.03
2023-04-04T23:24:49.525Z,102578.62
2023-04-04T23:27:21.098Z,102578.62
2023-04-04T23:29:50.927Z,102577.30
2023-04-04T23:32:21.209Z,102577.30
2023-04-04T23:34:51.015Z,102577.16
2023-04-04T23:37:22.153Z,102575.48
2023-04-04T23:39:51.928Z,102573.87
2023-04-04T23:42:21.487Z,102580.88
2023-04-04T23:44:51.553Z,102584.94
2023-04-04T23:47:21.830Z,102572.77
2023-04-04T23:49:51.624Z,102559.38
2023-04-04T23:52:21.319Z,102559.38
2023-04-04T23:54:51.217Z,102574.27
2023-04-04T23:57:21.095Z,102571.79
2023-04-04T23:59:51.197Z,102564.78
